Time;durP1;ratioP1;P1;durP2;ratioP2;P2;SDS_P1;SDS_P2;PMS_P1;PMS_P2;Temp;Humidity;BMP_temperature;BMP_pressure;BME280_temperature;BME280_humidity;BME280_pressure;Samples;Min_cycle;Max_cycle;Signal;HPM_P1;HPM_P2
2023/03/12 00:01:11;;;;;;;12.98;6.65;;;;;;;1.29;89.65;101159.84;6246550;23;20000;-74
2023/03/12 00:03:37;;;;;;;10.93;6.32;;;;;;;1.34;89.33;101165.66;6246562;23;20425;-74
2023/03/12 00:06:03;;;;;;;11.35;6.20;;;;;;;1.30;89.09;101161.50;6246323;23;20058;-76
2023/03/12 00:08:28;;;;;;;9.13;5.80;;;;;;;1.34;88.60;101163.94;6246536;23;20329;-74
2023/03/12 00:10:54;;;;;;;13.43;6.50;;;;;;;1.33;89.17;101162.28;6219589;23;20004;-74
2023/03/12 00:13:19;;;;;;;11.50;6.20;;;;;;;1.21;89.61;101143.88;6246449;23;20000;-75
2023/03/12 00:15:44;;;;;;;11.50;5.85;;;;;;;1.33;89.58;101164.81;6263773;22;20016;-75
2023/03/12 00:18:09;;;;;;;12.95;5.85;;;;;;;1.33;89.18;101156.34;6276888;22;20069;-75
2023/03/12 00:20:35;;;;;;;14.45;6.38;;;;;;;1.31;88.53;101148.75;6277144;22;20082;-75
2023/03/12 00:23:01;;;;;;;11.40;5.82;;;;;;;1.33;89.81;101151.25;6276709;22;20014;-76
2023/03/12 00:25:26;;;;;;;12.32;6.15;;;;;;;1.31;89.10;101146.22;6277165;22;20007;-74
2023/03/12 00:27:52;;;;;;;11.95;5.95;;;;;;;1.31;88.32;101138.56;6277095;22;20317;-76
2023/03/12 00:30:17;;;;;;;15.27;5.63;;;;;;;1.30;89.79;101126.72;6277021;22;20352;-78
2023/03/12 00:32:43;;;;;;;9.50;5.40;;;;;;;1.21;90.17;101115.91;6276863;22;20362;-76
2023/03/12 00:35:08;;;;;;;10.05;5.63;;;;;;;1.17;88.76;101111.72;6276539;22;20004;-74
2023/03/12 00:37:35;;;;;;;12.40;5.88;;;;;;;1.30;88.50;101128.44;6276731;22;20031;-76
2023/03/12 00:40:01;;;;;;;13.25;5.72;;;;;;;1.31;88.49;101125.03;6276593;22;20008;-75
2023/03/12 00:42:27;;;;;;;8.80;5.38;;;;;;;1.31;88.30;101117.38;6276606;22;20475;-76
2023/03/12 00:44:52;;;;;;;10.15;6.43;;;;;;;0.45;87.97;100983.47;6274945;22;20447;-75
2023/03/12 00:47:18;;;;;;;12.02;6.22;;;;;;;1.29;89.29;101117.44;6300191;22;20064;-74
2023/03/12 00:49:43;;;;;;;10.90;5.75;;;;;;;1.30;89.06;101123.34;6307464;22;20010;-78
2023/03/12 00:52:09;;;;;;;9.00;5.50;;;;;;;1.29;89.46;101117.44;6307368;22;20078;-76
2023/03/12 00:54:34;;;;;;;10.93;6.15;;;;;;;1.30;89.71;101113.19;6307383;22;19996;-74
2023/03/12 00:56:59;;;;;;;11.93;5.93;;;;;;;1.25;89.02;101103.06;6307509;22;20083;-74
2023/03/12 00:59:24;;;;;;;15.20;6.30;;;;;;;1.21;88.84;101091.28;6307984;22;20482;-75
2023/03/12 01:01:50;;;;;;;11.57;5.78;;;;;;;1.31;87.98;101100.41;6307551;22;20022;-74
2023/03/12 01:04:16;;;;;;;10.07;5.53;;;;;;;1.32;89.00;101109.72;6307224;22;20006;-74
2023/03/12 01:06:42;;;;;;;10.15;5.63;;;;;;;1.33;88.46;101106.31;6307361;22;20075;-76
2023/03/12 01:09:08;;;;;;;11.90;6.20;;;;;;;1.35;88.14;101094.38;6307035;22;20038;-76
2023/03/12 01:11:34;;;;;;;11.48;5.70;;;;;;;1.37;88.51;101095.19;6307403;22;19999;-75
2023/03/12 01:14:00;;;;;;;11.23;6.07;;;;;;;1.32;88.38;101086.00;6307358;22;20085;-75
2023/03/12 01:16:29;;;;;;;10.48;5.78;;;;;;;1.33;89.05;101085.94;6307785;22;20030;-71
2023/03/12 01:18:59;;;;;;;11.45;5.60;;;;;;;1.33;89.06;101082.56;6307345;22;20006;-75
2023/03/12 01:21:26;;;;;;;11.00;5.32;;;;;;;1.31;88.83;101084.31;6307472;22;20064;-74
2023/03/12 01:23:53;;;;;;;13.73;6.18;;;;;;;1.35;89.50;101083.38;6307054;22;20428;-74
2023/03/12 01:26:19;;;;;;;11.18;5.30;;;;;;;1.10;87.88;101044.91;6307532;22;20007;-75
2023/03/12 01:28:44;;;;;;;9.27;5.70;;;;;;;1.41;88.01;101086.63;6307148;22;20042;-74
2023/03/12 01:31:13;;;;;;;10.50;5.13;;;;;;;1.41;87.31;101078.16;6307273;22;20077;-75
2023/03/12 01:33:38;;;;;;;11.77;5.75;;;;;;;1.34;87.51;101077.44;6306788;22;20006;-75
2023/03/12 01:36:14;;;;;;;9.55;5.40;;;;;;;1.30;86.98;101069.94;6307140;22;20003;-76
2023/03/12 01:38:39;;;;;;;10.18;5.60;;;;;;;1.46;87.80;101083.13;6306976;22;20006;-74
2023/03/12 01:41:04;;;;;;;12.50;6.18;;;;;;;1.47;88.34;101087.34;6306891;22;20082;-75
2023/03/12 01:43:32;;;;;;;9.35;5.40;;;;;;;1.47;88.77;101079.72;6307045;22;19999;-74
2023/03/12 01:46:18;;;;;;;9.38;5.43;;;;;;;1.51;88.89;101071.16;6303908;22;20011;-79
2023/03/12 01:48:50;;;;;;;14.27;6.15;;;;;;;1.26;87.83;101018.25;6306233;22;20065;-75
2023/03/12 01:51:17;;;;;;;8.73;5.45;;;;;;;1.35;87.43;101024.84;6307035;22;20007;-75
2023/03/12 01:53:47;;;;;;;11.02;6.10;;;;;;;1.51;88.70;101054.19;6307002;22;20003;-79
2023/03/12 01:56:14;;;;;;;10.82;5.78;;;;;;;1.49;87.77;101058.50;6306886;22;20007;-74
2023/03/12 01:58:46;;;;;;;10.57;5.78;;;;;;;1.49;87.65;101055.94;6306791;22;20006;-75
2023/03/12 02:01:14;;;;;;;11.35;5.50;;;;;;;1.50;87.32;101052.53;6306499;22;20001;-79
2023/03/12 02:03:49;;;;;;;8.98;5.35;;;;;;;1.12;87.06;100989.75;6300407;22;20027;-77
2023/03/12 02:06:17;;;;;;;11.13;5.32;;;;;;;1.52;87.13;101052.47;6275987;22;19999;-74
2023/03/12 02:08:46;;;;;;;15.27;5.47;;;;;;;1.54;87.47;101054.13;6275888;22;20004;-73
2023/03/12 02:11:12;;;;;;;8.93;5.75;;;;;;;1.55;87.07;101048.16;6276092;22;20317;-73
2023/03/12 02:13:37;;;;;;;10.20;5.78;;;;;;;1.57;87.81;101045.56;6275787;22;20006;-75
2023/03/12 02:16:03;;;;;;;10.10;5.75;;;;;;;1.56;87.49;101038.81;6275528;22;20003;-78
2023/03/12 02:18:29;;;;;;;12.80;6.13;;;;;;;1.58;88.61;101040.47;6276080;22;20008;-73
2023/03/12 02:21:10;;;;;;;9.55;5.63;;;;;;;1.58;87.62;101037.09;6276028;22;20004;-73
2023/03/12 02:24:15;;;;;;;10.50;5.85;;;;;;;1.58;88.98;101022.66;6276224;22;20004;-75
2023/03/12 02:26:41;;;;;;;9.38;5.78;;;;;;;1.48;87.67;100998.28;6152358;23;20062;-78
2023/03/12 02:29:09;;;;;;;10.60;5.50;;;;;;;1.60;86.50;101004.78;6152550;23;20427;-77
2023/03/12 02:31:49;;;;;;;8.57;5.53;;;;;;;1.62;87.62;101010.69;6152601;23;20005;-73
2023/03/12 02:34:14;;;;;;;10.02;5.97;;;;;;;1.54;87.81;100992.19;6152366;23;20005;-75
2023/03/12 02:36:39;;;;;;;9.43;5.60;;;;;;;1.62;88.41;101003.03;6152367;23;20016;-74
2023/03/12 02:39:05;;;;;;;13.75;6.28;;;;;;;1.61;87.59;101012.38;6152574;23;20011;-74
2023/03/12 02:41:36;;;;;;;10.20;5.50;;;;;;;1.62;87.77;101005.59;6152429;23;20005;-74
2023/03/12 02:44:01;;;;;;;10.50;6.18;;;;;;;1.62;87.21;101013.22;6152566;23;20010;-76
2023/03/12 02:46:31;;;;;;;11.88;5.97;;;;;;;1.57;86.83;100992.94;6152722;23;20399;-74
2023/03/12 02:48:56;;;;;;;10.55;5.97;;;;;;;1.48;87.24;100980.47;6152679;23;20041;-74
2023/03/12 02:51:22;;;;;;;9.70;5.50;;;;;;;1.47;86.93;100983.84;6127735;23;20317;-75
2023/03/12 02:53:53;;;;;;;9.68;5.50;;;;;;;1.65;86.43;101001.25;6152734;23;20005;-74
2023/03/12 02:56:19;;;;;;;8.43;5.50;;;;;;;1.66;86.56;101004.63;6152029;23;20022;-74
2023/03/12 02:58:44;;;;;;;12.13;5.75;;;;;;;1.66;86.54;100991.91;6152402;23;20085;-75
2023/03/12 03:01:09;;;;;;;10.00;5.43;;;;;;;1.62;86.62;100982.69;6152221;23;20010;-76
2023/03/12 03:03:35;;;;;;;11.07;6.03;;;;;;;1.66;86.79;100986.81;6220597;22;20085;-78
2023/03/12 03:06:00;;;;;;;11.82;5.90;;;;;;;1.64;86.96;100979.22;6276602;22;20000;-79
2023/03/12 03:08:25;;;;;;;11.05;6.13;;;;;;;1.69;87.61;100984.22;6277527;22;20325;-74
2023/03/12 03:10:51;;;;;;;10.23;5.88;;;;;;;1.57;87.04;100967.50;6277320;22;20014;-75
2023/03/12 03:13:17;;;;;;;9.90;5.90;;;;;;;1.61;86.86;100978.47;6277649;22;20006;-75
2023/03/12 03:15:42;;;;;;;9.57;6.07;;;;;;;1.70;86.54;100993.53;6277879;22;20376;-75
2023/03/12 03:18:07;;;;;;;11.88;6.05;;;;;;;1.68;86.34;101000.38;6277648;22;20011;-76
2023/03/12 03:20:33;;;;;;;12.20;6.68;;;;;;;1.68;87.13;101002.91;6277357;22;20004;-74
2023/03/12 03:22:58;;;;;;;12.20;6.30;;;;;;;1.65;87.57;100996.16;6277826;22;20015;-73
2023/03/12 03:25:24;;;;;;;11.63;6.57;;;;;;;1.44;88.26;100959.31;6277077;22;20439;-75
2023/03/12 03:27:49;;;;;;;12.40;7.10;;;;;;;1.57;88.39;100979.41;6277177;22;20083;-74
2023/03/12 03:30:15;;;;;;;9.57;5.95;;;;;;;1.62;88.28;100982.69;6277563;22;20002;-75
2023/03/12 03:32:41;;;;;;;12.70;6.82;;;;;;;1.68;88.55;100987.63;6277664;22;20003;-74
2023/03/12 03:35:07;;;;;;;11.57;6.82;;;;;;;1.56;88.74;100981.09;6277541;22;20316;-73
2023/03/12 03:37:32;;;;;;;12.18;6.97;;;;;;;1.67;88.71;100994.44;6277001;22;20038;-73
2023/03/12 03:39:57;;;;;;;13.63;7.70;;;;;;;1.68;89.53;100985.09;6277693;22;20017;-73
2023/03/12 03:42:23;;;;;;;11.35;6.85;;;;;;;1.67;89.50;100983.41;6276911;22;20405;-73
2023/03/12 03:44:48;;;;;;;15.00;7.95;;;;;;;1.53;90.26;100952.34;6277592;22;20011;-75
2023/03/12 03:47:14;;;;;;;12.00;6.60;;;;;;;1.54;90.31;100947.22;6277382;22;20000;-75
2023/03/12 03:49:39;;;;;;;12.02;6.28;;;;;;;1.74;90.62;100969.66;6277160;22;20010;-77
2023/03/12 03:52:06;;;;;;;10.23;6.05;;;;;;;1.76;90.97;100967.91;6277201;22;20306;-75
2023/03/12 03:54:32;;;;;;;10.48;5.97;;;;;;;1.67;91.84;100945.22;6277059;22;20000;-73
2023/03/12 03:57:16;;;;;;;14.98;5.72;;;;;;;1.80;91.61;100954.25;6276337;22;20383;-74
2023/03/12 03:59:41;;;;;;;7.28;5.07;;;;;;;1.13;92.53;100847.28;6276993;22;20030;-74
2023/03/12 04:02:09;;;;;;;9.48;5.68;;;;;;;1.23;92.89;100845.34;6277118;22;20004;-74
2023/03/12 04:04:35;;;;;;;11.50;5.72;;;;;;;1.88;93.24;100942.16;6277403;22;20027;-74
2023/03/12 04:07:01;;;;;;;11.75;5.47;;;;;;;1.88;93.43;100942.16;6276939;22;20425;-74
2023/03/12 04:09:26;;;;;;;10.10;5.30;;;;;;;1.58;93.84;100884.38;6277017;22;20004;-74
2023/03/12 04:11:51;;;;;;;11.07;6.60;;;;;;;1.89;94.49;100933.66;6276925;22;20572;-74
2023/03/12 04:14:17;;;;;;;11.32;5.60;;;;;;;1.77;94.63;100903.41;6276891;22;20004;-76
2023/03/12 04:16:42;;;;;;;14.00;6.05;;;;;;;1.90;94.80;100917.47;6276847;22;20004;-74
2023/03/12 04:19:07;;;;;;;10.90;5.63;;;;;;;1.93;94.24;100911.47;6276474;22;20083;-75
2023/03/12 04:21:32;;;;;;;12.38;6.38;;;;;;;1.83;94.33;100895.59;6276929;22;20098;-74
2023/03/12 04:23:58;;;;;;;11.75;6.07;;;;;;;1.93;93.94;100914.03;6276810;22;20050;-74
2023/03/12 04:26:23;;;;;;;9.00;5.75;;;;;;;1.93;94.00;100903.84;6277043;22;20045;-75
2023/03/12 04:28:48;;;;;;;10.40;5.78;;;;;;;1.91;94.47;100893.69;6277051;22;20065;-76
2023/03/12 04:31:14;;;;;;;9.77;6.03;;;;;;;1.89;94.44;100887.81;6276805;22;20008;-75
2023/03/12 04:33:39;;;;;;;11.63;5.90;;;;;;;1.90;94.25;100888.66;6276943;22;20008;-76
2023/03/12 04:36:06;;;;;;;10.45;5.88;;;;;;;1.83;93.84;100880.31;6276678;22;20476;-74
2023/03/12 04:38:32;;;;;;;10.35;6.40;;;;;;;1.72;94.26;100855.13;6277129;22;20004;-76
2023/03/12 04:41:10;;;;;;;11.77;6.40;;;;;;;1.85;93.98;100878.56;6277083;22;20003;-75
2023/03/12 04:43:35;;;;;;;11.63;6.30;;;;;;;1.58;94.20;100833.47;6276828;22;20034;-74
2023/03/12 04:46:01;;;;;;;9.20;5.40;;;;;;;1.86;94.02;100875.13;6276665;22;20421;-75
2023/03/12 04:48:26;;;;;;;11.32;5.78;;;;;;;1.87;93.98;100881.94;6276700;22;20007;-70
2023/03/12 04:50:52;;;;;;;15.48;6.38;;;;;;;1.70;94.29;100850.97;6276568;22;20050;-74
2023/03/12 04:53:17;;;;;;;8.20;5.70;;;;;;;1.80;94.17;100854.13;6276475;22;20000;-73
2023/03/12 04:55:43;;;;;;;11.10;6.20;;;;;;;1.90;94.58;100879.28;6276715;22;20010;-73
2023/03/12 04:58:09;;;;;;;10.80;5.65;;;;;;;1.83;93.81;100856.56;6276266;22;20437;-75
2023/03/12 05:00:35;;;;;;;14.10;5.80;;;;;;;1.83;94.19;100861.66;6276465;22;20004;-78
2023/03/12 05:03:01;;;;;;;11.55;5.90;;;;;;;1.75;93.64;100849.13;6276744;22;20380;-78
2023/03/12 05:05:26;;;;;;;11.88;5.80;;;;;;;1.90;93.44;100868.28;6276462;22;20000;-75
2023/03/12 05:07:51;;;;;;;9.65;5.55;;;;;;;1.87;93.67;100853.06;6276366;22;20064;-75
2023/03/12 05:10:17;;;;;;;11.05;5.72;;;;;;;1.93;93.66;100858.00;6276357;22;20003;-75
2023/03/12 05:12:42;;;;;;;11.50;6.15;;;;;;;1.89;94.07;100843.69;6276477;22;20008;-76
2023/03/12 05:15:08;;;;;;;11.57;6.20;;;;;;;1.84;93.72;100830.22;6276184;22;20333;-75
2023/03/12 05:17:33;;;;;;;12.85;6.40;;;;;;;1.95;93.87;100834.16;6276369;22;20007;-74
2023/03/12 05:19:59;;;;;;;12.65;5.38;;;;;;;1.99;93.83;100837.47;6276939;22;20007;-77
2023/03/12 05:22:24;;;;;;;13.77;5.70;;;;;;;1.98;94.13;100833.25;6276665;22;20371;-75
2023/03/12 05:24:49;;;;;;;9.75;6.22;;;;;;;1.97;94.47;100829.03;6276715;22;20004;-76
2023/03/12 05:27:15;;;;;;;9.80;5.20;;;;;;;1.82;94.55;100802.28;6275965;22;20417;-75
2023/03/12 05:29:40;;;;;;;16.75;5.93;;;;;;;1.96;95.09;100817.16;6275808;22;20004;-76
2023/03/12 05:32:06;;;;;;;10.50;5.72;;;;;;;1.99;95.44;100828.13;6276206;22;20321;-75
2023/03/12 05:34:32;;;;;;;12.65;5.32;;;;;;;1.84;94.74;100807.31;6276496;22;20006;-76
2023/03/12 05:36:58;;;;;;;10.45;5.68;;;;;;;1.99;95.42;100823.03;6276512;22;20038;-78
2023/03/12 05:39:25;;;;;;;10.07;5.40;;;;;;;1.91;95.89;100799.47;6276173;22;20014;-76
2023/03/12 05:41:52;;;;;;;11.10;5.50;;;;;;;1.98;96.81;100821.34;6276310;22;20026;-74
2023/03/12 05:44:18;;;;;;;9.88;5.60;;;;;;;1.94;97.36;100824.84;6276246;22;20003;-78
2023/03/12 05:46:43;;;;;;;10.60;5.60;;;;;;;1.96;98.85;100830.72;6276177;22;20007;-79
2023/03/12 05:49:09;;;;;;;10.80;5.72;;;;;;;1.97;99.53;100821.41;6276472;22;20061;-73
2023/03/12 05:51:36;;;;;;;13.32;5.95;;;;;;;1.98;100.00;100825.63;6276106;22;20010;-78
2023/03/12 05:54:01;;;;;;;9.93;5.45;;;;;;;1.98;100.00;100821.34;6276479;22;20004;-74
2023/03/12 05:56:27;;;;;;;11.82;5.18;;;;;;;1.93;100.00;100817.25;6275965;22;20026;-75
2023/03/12 05:58:52;;;;;;;12.90;6.28;;;;;;;2.00;100.00;100827.22;6276135;22;20081;-78
2023/03/12 06:01:21;;;;;;;9.82;5.82;;;;;;;1.95;100.00;100815.50;6275907;22;20480;-74
2023/03/12 06:03:46;;;;;;;10.00;5.63;;;;;;;1.99;100.00;100819.63;6275973;22;20003;-74
2023/03/12 06:06:12;;;;;;;10.23;5.63;;;;;;;2.00;100.00;100817.03;6276320;22;20003;-75
2023/03/12 06:08:38;;;;;;;10.90;6.30;;;;;;;1.97;100.00;100809.50;6276040;22;20083;-78
2023/03/12 06:11:03;;;;;;;12.88;6.07;;;;;;;1.94;100.00;100816.38;6275821;22;20004;-77
2023/03/12 06:13:29;;;;;;;15.80;6.30;;;;;;;1.97;100.00;100816.31;6248568;22;20004;-75
2023/03/12 06:16:07;;;;;;;12.18;5.93;;;;;;;1.94;100.00;100814.66;6275581;22;20004;-73
2023/03/12 06:18:33;;;;;;;14.05;6.00;;;;;;;2.05;100.00;100823.72;6276168;22;20316;-79
2023/03/12 06:21:11;;;;;;;11.70;6.70;;;;;;;2.01;100.00;100812.78;6276127;22;20006;-75
2023/03/12 06:23:36;;;;;;;10.82;6.15;;;;;;;2.08;100.00;100833.84;6275474;22;20011;-77
2023/03/12 06:26:02;;;;;;;13.55;6.57;;;;;;;2.10;100.00;100829.53;6276119;22;20008;-73
2023/03/12 06:28:27;;;;;;;12.15;6.57;;;;;;;2.11;100.00;100828.66;6275730;22;20417;-77
2023/03/12 06:30:54;;;;;;;12.90;6.53;;;;;;;2.11;100.00;100826.09;6275963;22;20035;-75
2023/03/12 06:33:19;;;;;;;12.70;6.38;;;;;;;2.12;100.00;100818.41;6276249;22;20057;-75
2023/03/12 06:35:45;;;;;;;12.80;7.07;;;;;;;2.16;100.00;100808.97;6276119;22;20305;-73
2023/03/12 06:38:10;;;;;;;14.15;7.05;;;;;;;2.17;100.00;100808.09;6275726;22;20489;-74
2023/03/12 06:40:36;;;;;;;14.50;7.30;;;;;;;2.14;100.00;100805.63;6275815;22;20078;-73
2023/03/12 06:43:01;;;;;;;13.23;7.70;;;;;;;2.10;100.00;100806.59;6277490;22;20405;-76
2023/03/12 06:45:26;;;;;;;19.10;8.60;;;;;;;2.04;100.00;100804.22;6277859;22;20051;-75
2023/03/12 06:47:52;;;;;;;13.50;7.40;;;;;;;2.04;100.00;100806.75;6277639;22;20010;-75
2023/03/12 06:50:17;;;;;;;13.05;8.90;;;;;;;1.93;100.00;100789.25;6277313;22;20015;-76
2023/03/12 06:52:43;;;;;;;13.32;7.53;;;;;;;2.07;100.00;100793.97;6278101;22;20007;-73
2023/03/12 06:55:08;;;;;;;12.70;8.15;;;;;;;2.06;100.00;100790.56;6277711;22;20071;-74
2023/03/12 06:57:34;;;;;;;13.60;8.23;;;;;;;2.05;100.00;100780.41;6277345;22;20015;-73
2023/03/12 06:59:59;;;;;;;14.68;8.38;;;;;;;2.08;100.00;100777.81;6277712;22;20087;-76
2023/03/12 07:02:24;;;;;;;15.30;8.55;;;;;;;2.14;100.00;100775.88;6277815;22;20004;-75
2023/03/12 07:04:50;;;;;;;15.13;8.93;;;;;;;2.19;100.00;100770.69;6277625;22;20004;-75
2023/03/12 07:07:15;;;;;;;17.00;9.60;;;;;;;2.20;100.00;100775.72;6277448;22;20004;-75
2023/03/12 07:09:41;;;;;;;14.80;9.48;;;;;;;2.25;100.00;100776.41;6277093;22;20082;-73
2023/03/12 07:12:07;;;;;;;20.08;9.80;;;;;;;2.24;100.00;100769.66;6277474;22;20011;-71
2023/03/12 07:14:32;;;;;;;14.55;9.77;;;;;;;2.29;100.00;100772.91;6277072;22;20011;-73
2023/03/12 07:17:00;;;;;;;16.35;10.02;;;;;;;2.22;100.00;100762.94;6277302;22;20011;-71
2023/03/12 07:19:26;;;;;;;14.60;10.43;;;;;;;2.32;100.00;100766.88;6250593;22;20077;-75
2023/03/12 07:21:51;;;;;;;15.00;10.15;;;;;;;2.33;100.00;100775.34;6277420;22;20000;-74
2023/03/12 07:24:16;;;;;;;18.88;10.55;;;;;;;1.25;100.00;100594.31;6276391;22;20015;-76
2023/03/12 07:26:45;;;;;;;15.48;9.95;;;;;;;1.63;100.00;100653.47;6277340;22;20010;-74
2023/03/12 07:29:10;;;;;;;15.27;9.77;;;;;;;1.76;100.00;100676.84;6277320;22;20003;-77
2023/03/12 07:31:38;;;;;;;16.50;10.30;;;;;;;2.45;100.00;100785.16;6277063;22;20010;-79
2023/03/12 07:34:04;;;;;;;17.27;10.32;;;;;;;2.45;100.00;100778.34;6277644;22;20004;-74
2023/03/12 07:36:30;;;;;;;17.90;11.18;;;;;;;2.35;100.00;100760.84;6277424;22;20007;-75
2023/03/12 07:38:55;;;;;;;17.60;10.75;;;;;;;2.51;100.00;100777.34;6277148;22;20015;-75
2023/03/12 07:41:21;;;;;;;17.98;10.45;;;;;;;2.52;100.00;100779.00;6250202;22;20012;-76
2023/03/12 07:43:58;;;;;;;20.17;11.77;;;;;;;2.24;100.00;100728.88;6274502;22;20004;-75
2023/03/12 07:46:24;;;;;;;17.90;10.88;;;;;;;2.51;100.00;100787.53;6277425;22;20064;-77
2023/03/12 07:48:49;;;;;;;15.70;11.05;;;;;;;2.48;100.00;100782.56;6250617;22;20369;-79
2023/03/12 07:51:14;;;;;;;22.33;11.68;;;;;;;2.51;100.00;100785.00;6276131;22;20003;-75
2023/03/12 07:53:40;;;;;;;17.02;11.30;;;;;;;2.51;100.00;100783.28;6276791;22;20000;-74
2023/03/12 07:56:06;;;;;;;17.88;11.20;;;;;;;2.47;100.00;100778.34;6276423;22;20004;-75
2023/03/12 07:58:32;;;;;;;20.13;12.68;;;;;;;2.39;100.00;100773.47;6276904;22;20003;-74
2023/03/12 08:00:57;;;;;;;19.48;12.73;;;;;;;2.49;100.00;100791.88;6277137;22;19995;-74
2023/03/12 08:03:23;;;;;;;19.58;11.52;;;;;;;2.41;100.00;100764.06;6277056;22;20011;-77
2023/03/12 08:05:56;;;;;;;20.80;13.35;;;;;;;2.47;100.00;100757.94;6277056;22;20000;-73
2023/03/12 08:08:22;;;;;;;18.30;12.82;;;;;;;2.68;100.00;100780.22;6276631;22;20444;-78
2023/03/12 08:10:47;;;;;;;17.20;11.85;;;;;;;2.74;100.00;100776.63;6276588;22;20000;-76
2023/03/12 08:13:12;;;;;;;17.88;11.98;;;;;;;2.79;100.00;100782.44;6276654;22;20082;-76
2023/03/12 08:15:38;;;;;;;17.95;12.57;;;;;;;2.78;100.00;100762.91;6276970;22;20006;-76
2023/03/12 08:18:03;;;;;;;17.92;12.10;;;;;;;2.94;100.00;100766.63;6277438;22;20083;-75
2023/03/12 08:20:28;;;;;;;17.13;12.55;;;;;;;2.87;100.00;100745.59;6277059;22;20420;-75
2023/03/12 08:22:54;;;;;;;17.63;11.93;;;;;;;3.04;100.00;100769.72;6282868;22;20015;-80
2023/03/12 08:25:20;;;;;;;16.80;13.07;;;;;;;3.10;100.00;100783.09;6307434;22;19999;-78
2023/03/12 08:27:45;;;;;;;20.08;13.40;;;;;;;3.10;100.00;100765.25;6307528;22;19999;-76
2023/03/12 08:30:12;;;;;;;18.23;12.15;;;;;;;3.21;100.00;100790.41;6279965;22;20061;-78
2023/03/12 08:32:37;;;;;;;16.80;11.55;;;;;;;3.26;100.00;100787.72;6307112;22;20008;-76
2023/03/12 08:35:04;;;;;;;18.77;12.23;;;;;;;3.30;100.00;100785.00;6307745;22;20006;-77
2023/03/12 08:37:29;;;;;;;19.33;11.88;;;;;;;3.35;100.00;100788.25;6307836;22;20010;-79
2023/03/12 08:39:55;;;;;;;17.65;12.80;;;;;;;3.36;100.00;100789.06;6307520;22;20007;-76
2023/03/12 08:42:20;;;;;;;20.00;12.90;;;;;;;3.45;100.00;100797.25;6279151;22;20332;-79
2023/03/12 08:44:45;;;;;;;18.27;12.63;;;;;;;3.51;100.00;100793.66;6307435;22;20455;-79
2023/03/12 08:47:11;;;;;;;17.25;13.30;;;;;;;2.72;100.00;100659.41;6295702;22;20072;-77
2023/03/12 08:49:51;;;;;;;21.33;14.32;;;;;;;3.17;100.00;100730.16;6276937;22;20433;-80
2023/03/12 08:52:20;;;;;;;17.70;12.77;;;;;;;3.23;100.00;100724.84;6277025;22;20026;-77
2023/03/12 08:54:48;;;;;;;18.73;13.05;;;;;;;3.80;100.00;100802.00;6276335;22;20436;-79
2023/03/12 08:57:17;;;;;;;16.67;12.40;;;;;;;3.02;100.00;100670.28;6276678;22;20007;-78
2023/03/12 08:59:48;;;;;;;21.17;13.73;;;;;;;3.90;100.00;100809.28;6276841;22;19996;-75
2023/03/12 09:02:13;;;;;;;;;;;;;;;3.95;100.00;100809.97;6277123;22;20003;-73
2023/03/12 09:04:39;;;;;;;20.92;13.95;;;;;;;4.02;100.00;100805.47;6276494;22;20216;-76
2023/03/12 09:07:04;;;;;;;24.48;15.88;;;;;;;3.95;100.00;100779.31;6276862;22;20046;-77
2023/03/12 09:09:30;;;;;;;23.38;15.35;;;;;;;4.18;100.00;100798.91;6276760;22;20073;-75
2023/03/12 09:11:55;;;;;;;26.10;16.70;;;;;;;4.26;100.00;100812.25;6275397;22;20470;-77
2023/03/12 09:14:21;;;;;;;26.42;16.58;;;;;;;4.35;100.00;100802.56;6276075;22;20006;-78
2023/03/12 09:16:47;;;;;;;31.35;17.88;;;;;;;4.42;100.00;100802.25;6275389;22;20004;-76
2023/03/12 09:19:12;;;;;;;30.02;18.08;;;;;;;4.53;100.00;100797.59;6275133;22;20837;-75
2023/03/12 09:21:38;;;;;;;33.10;19.40;;;;;;;4.70;100.00;100801.22;6276141;22;20007;-76
2023/03/12 09:24:04;;;;;;;30.77;20.23;;;;;;;4.85;100.00;100801.44;6276246;22;20000;-79
2023/03/12 09:26:30;;;;;;;30.25;20.30;;;;;;;5.03;100.00;100789.66;6249669;22;20004;-76
2023/03/12 09:28:56;;;;;;;31.55;21.20;;;;;;;5.17;100.00;100794.19;6276584;22;20519;-75
2023/03/12 09:31:22;;;;;;;36.00;21.80;;;;;;;5.30;100.00;100787.66;6276436;22;20008;-73
2023/03/12 09:33:47;;;;;;;34.08;20.95;;;;;;;5.45;100.00;100792.16;6276163;22;20046;-72
2023/03/12 09:36:13;;;;;;;37.92;24.67;;;;;;;5.60;100.00;100797.50;6276170;22;20000;-73
2023/03/12 09:38:38;;;;;;;37.75;23.65;;;;;;;5.84;100.00;100798.19;6276054;22;20010;-72
2023/03/12 09:41:05;;;;;;;38.58;23.13;;;;;;;5.92;100.00;100784.19;6276245;22;20030;-73
2023/03/12 09:44:03;;;;;;;36.85;23.70;;;;;;;6.08;100.00;100781.75;6275944;22;20479;-72
2023/03/12 09:46:36;;;;;;;39.55;23.88;;;;;;;6.37;100.00;100798.38;6275334;22;20003;-74
2023/03/12 09:49:09;;;;;;;36.50;22.77;;;;;;;6.15;100.00;100737.00;6275411;22;20038;-74
2023/03/12 09:51:42;;;;;;;34.47;23.63;;;;;;;6.49;100.00;100787.56;6276235;22;20305;-76
2023/03/12 09:54:24;;;;;;;39.50;23.88;;;;;;;6.67;100.00;100805.53;6276146;22;20058;-74
2023/03/12 09:56:53;;;;;;;36.13;23.67;;;;;;;6.73;100.00;100795.84;6275807;22;19999;-73
2023/03/12 09:59:19;;;;;;;37.63;24.20;;;;;;;6.98;100.00;100821.19;6275971;22;20030;-72
2023/03/12 10:01:55;;;;;;;33.92;23.13;;;;;;;7.09;100.00;100818.91;6276016;22;20000;-73
2023/03/12 10:04:52;;;;;;;31.88;22.83;;;;;;;7.32;100.00;100816.94;6275211;22;20004;-73
2023/03/12 10:07:49;;;;;;;31.17;22.08;;;;;;;7.49;100.00;100824.66;6273036;22;20008;-73
2023/03/12 10:10:24;;;;;;;30.42;22.13;;;;;;;7.44;100.00;100818.91;6242549;23;20156;-72
2023/03/12 10:13:14;;;;;;;31.40;21.83;;;;;;;7.37;100.00;100786.72;6242516;23;20008;-81
2023/03/12 10:15:48;;;;;;;30.52;21.20;;;;;;;7.65;100.00;100825.53;6242709;23;20008;-75
2023/03/12 10:18:48;;;;;;;29.95;20.67;;;;;;;7.75;100.00;100819.00;6244562;23;20023;-73
2023/03/12 10:21:24;;;;;;;29.42;20.20;;;;;;;7.63;100.00;100791.38;6244459;23;20083;-75
2023/03/12 10:24:06;;;;;;;32.25;21.33;;;;;;;7.79;100.00;100824.00;6244657;23;20014;-74
2023/03/12 10:26:38;;;;;;;32.03;22.35;;;;;;;7.90;100.00;100807.09;6219350;23;20365;-75
2023/03/12 10:29:17;;;;;;;30.90;21.17;;;;;;;8.03;100.00;100802.97;6244699;23;20007;-75
2023/03/12 10:32:04;;;;;;;32.67;21.23;;;;;;;8.09;100.00;100819.84;6244682;23;20008;-75
2023/03/12 10:34:29;;;;;;;32.00;20.17;;;;;;;8.03;100.00;100818.41;6244497;23;20000;-77
2023/03/12 10:37:21;;;;;;;32.15;20.45;;;;;;;7.95;100.00;100817.97;6244771;23;20061;-76
2023/03/12 10:42:24;;;;;;;33.92;21.38;;;;;;;8.02;100.00;100814.19;6246459;22;20020;-76
2023/03/12 10:44:55;;;;;;;32.42;20.88;;;;;;;8.12;100.00;100816.25;6247043;23;20446;-76
2023/03/12 10:47:41;;;;;;;30.10;19.33;;;;;;;8.20;100.00;100809.81;6247298;23;20091;-74
2023/03/12 10:50:28;;;;;;;31.05;19.25;;;;;;;8.20;100.00;100817.53;6246553;23;20425;-74
2023/03/12 10:53:21;;;;;;;27.60;19.13;;;;;;;8.23;100.00;100812.22;6246166;23;20004;-76
2023/03/12 10:56:02;;;;;;;33.40;18.83;;;;;;;8.23;100.00;100808.81;6246683;23;20503;-75
2023/03/12 10:58:33;;;;;;;32.83;19.30;;;;;;;8.21;100.00;100815.78;6247256;23;20000;-74
2023/03/12 11:01:01;;;;;;;29.10;19.05;;;;;;;8.13;100.00;100813.59;6247261;23;20111;-75
2023/03/12 11:03:28;;;;;;;32.20;19.05;;;;;;;8.09;100.00;100816.44;6247005;23;20488;-79
2023/03/12 11:05:58;;;;;;;40.33;20.42;;;;;;;8.01;100.00;100814.25;6247177;23;20000;-75
2023/03/12 11:08:27;;;;;;;28.77;19.27;;;;;;;8.02;100.00;100815.91;6247048;23;20414;-75
2023/03/12 11:10:54;;;;;;;34.80;20.02;;;;;;;8.02;100.00;100814.19;6247033;23;20326;-76
2023/03/12 11:13:34;;;;;;;32.00;18.90;;;;;;;8.00;100.00;100818.56;6247047;23;19996;-75
2023/03/12 11:16:23;;;;;;;34.92;19.63;;;;;;;7.98;100.00;100801.56;6246787;23;20004;-75
2023/03/12 11:19:02;;;;;;;32.70;19.08;;;;;;;8.21;100.00;100818.34;6219325;23;20043;-76
2023/03/12 11:21:28;;;;;;;34.05;19.83;;;;;;;8.19;100.00;100812.47;6246961;23;20011;-78
2023/03/12 11:23:57;;;;;;;33.13;19.02;;;;;;;8.37;100.00;100836.41;6246610;23;20023;-77
2023/03/12 11:26:48;;;;;;;36.58;19.52;;;;;;;8.46;100.00;100834.19;6246568;23;20007;-76